Portage la Prairie, Canada
Current Conditions -  °F | °C
As of 11:00 PM on Friday 19 Dec 2014 (Local Time) from CYWG Reporting Station
Haze Haze  
Wind Chill: 20°   Ceiling: 300
Heat Index: 27°   Visibility: 2mi
Dew Point: 25°   Wind: 6mph
Humidity: 93%   Direction: 180°S
Pressure: 30.02"   Gusts: NA
Location:  49.97°N, 98.29°W
Report Text: CYWG 200500Z 18005KT 2SM BR OVC003 M03/M04 A3002 RMK ST8 SLP182
Loading
Personal Weather Stations






























Interactive Weather Map New forecast layout! Learn more

10-Day Weather Forecast

Advertisements
Track Severe Weather on mobile